createdAt,value
2022-12-06T00:00:33.249Z,518.28
2022-12-06T00:01:33.225Z,518.04
2022-12-06T00:02:33.279Z,519.51
2022-12-06T00:03:33.313Z,520.13
2022-12-06T00:04:36.244Z,521.05
2022-12-06T00:05:33.257Z,522.22
2022-12-06T00:06:33.229Z,521.99
2022-12-06T00:07:33.301Z,522.85
2022-12-06T00:08:33.232Z,523.37
2022-12-06T00:09:33.243Z,524.97
2022-12-06T00:10:33.260Z,525.76
2022-12-06T00:11:33.230Z,526.75
2022-12-06T00:12:33.232Z,527.55
2022-12-06T00:13:33.259Z,526.7
2022-12-06T00:14:33.245Z,527.32
2022-12-06T00:15:33.264Z,526.51
2022-12-06T00:16:33.379Z,526.86
2022-12-06T00:17:33.242Z,528.09
2022-12-06T00:18:35.989Z,528.51
2022-12-06T00:19:33.250Z,528.6
2022-12-06T00:20:33.268Z,528.88
2022-12-06T00:21:33.252Z,529.47
2022-12-06T00:22:33.257Z,529.64
2022-12-06T00:23:33.249Z,530.73
2022-12-06T00:24:33.253Z,531.3
2022-12-06T00:25:33.304Z,532.12
2022-12-06T00:26:33.264Z,533.88
2022-12-06T00:27:33.264Z,534.86
2022-12-06T00:28:33.260Z,536.55
2022-12-06T00:29:33.285Z,537.09
2022-12-06T00:30:33.299Z,538.94
2022-12-06T00:31:33.347Z,540.54
2022-12-06T00:32:33.265Z,541.95
2022-12-06T00:33:33.292Z,542.68
2022-12-06T00:34:33.273Z,543.26
2022-12-06T00:35:33.297Z,544.05
2022-12-06T00:36:33.276Z,546.34
2022-12-06T00:37:33.283Z,546.53
2022-12-06T00:38:33.282Z,547.5
2022-12-06T00:39:33.274Z,547.37
2022-12-06T00:40:33.305Z,548.49
2022-12-06T00:41:33.279Z,549.43
2022-12-06T00:42:33.282Z,550.08
2022-12-06T00:43:36.306Z,550.19
2022-12-06T00:44:33.283Z,550.04
2022-12-06T00:45:33.407Z,549.59
2022-12-06T00:46:33.322Z,549.16
2022-12-06T00:47:33.298Z,549.52
2022-12-06T00:48:33.318Z,549.51
2022-12-06T00:49:33.295Z,549.55
2022-12-06T00:50:33.321Z,550.83
2022-12-06T00:51:33.304Z,551.42
2022-12-06T00:52:33.294Z,552.55
2022-12-06T00:53:34.337Z,553.25
2022-12-06T00:54:33.296Z,555.38
2022-12-06T00:55:33.327Z,556.34
2022-12-06T00:56:33.314Z,556.74
2022-12-06T00:57:33.316Z,558.42
2022-12-06T00:58:33.313Z,559.35
2022-12-06T00:59:33.311Z,560.46
2022-12-06T01:00:33.339Z,561.18
2022-12-06T01:01:34.400Z,561.75
2022-12-06T01:02:33.322Z,563.17
2022-12-06T01:03:35.292Z,563.48
2022-12-06T01:04:33.313Z,564.1
2022-12-06T01:05:33.339Z,564.76
2022-12-06T01:06:33.325Z,565.02
2022-12-06T01:07:33.368Z,565.77
2022-12-06T01:08:33.327Z,567.11
2022-12-06T01:09:33.326Z,567.64
2022-12-06T01:10:33.350Z,568.28
2022-12-06T01:11:33.332Z,569.13
2022-12-06T01:12:33.336Z,569.06
2022-12-06T01:13:33.337Z,569.67
2022-12-06T01:14:33.330Z,570.61
2022-12-06T01:15:34.162Z,570.61
2022-12-06T01:16:33.391Z,572.01
2022-12-06T01:17:33.372Z,571.54
2022-12-06T01:18:33.385Z,571.96
2022-12-06T01:19:33.348Z,572.86
2022-12-06T01:20:33.339Z,573.41
2022-12-06T01:21:33.341Z,573.73
2022-12-06T01:22:33.350Z,574.08
2022-12-06T01:23:33.344Z,574.21
2022-12-06T01:24:33.349Z,574.95
2022-12-06T01:25:36.055Z,575.51
2022-12-06T01:26:33.364Z,575.5
2022-12-06T01:27:33.356Z,576.11
2022-12-06T01:28:33.355Z,575.69
2022-12-06T01:29:33.364Z,576.45
2022-12-06T01:30:33.386Z,576.76
2022-12-06T01:31:38.033Z,577.97
2022-12-06T01:32:33.367Z,578.66
2022-12-06T01:33:33.396Z,578.67
2022-12-06T01:34:33.363Z,579.01
2022-12-06T01:35:33.362Z,579.53
2022-12-06T01:36:33.375Z,580.67
2022-12-06T01:37:33.366Z,581.35
2022-12-06T01:38:33.369Z,581.55
2022-12-06T01:39:33.371Z,582.12
2022-12-06T01:40:33.374Z,581.88
2022-12-06T01:41:33.380Z,582.85
2022-12-06T01:42:33.382Z,582.65
2022-12-06T01:43:33.383Z,583.21
2022-12-06T01:44:33.391Z,583.38
2022-12-06T01:45:33.382Z,583.93
2022-12-06T01:46:33.517Z,584.58
2022-12-06T01:47:33.429Z,584.5
2022-12-06T01:48:33.383Z,584.8
2022-12-06T01:49:33.409Z,584.8
2022-12-06T01:50:33.389Z,585.38
2022-12-06T01:51:33.388Z,585.71
2022-12-06T01:52:33.406Z,585.77
2022-12-06T01:53:33.417Z,585.98
2022-12-06T01:54:33.399Z,586.32
2022-12-06T01:55:33.403Z,586.69
2022-12-06T01:56:34.443Z,586.66
2022-12-06T01:57:33.399Z,587.07
2022-12-06T01:58:36.452Z,587.42
2022-12-06T01:59:33.408Z,587.62
2022-12-06T02:00:33.409Z,587.77
2022-12-06T02:01:33.458Z,588.29
2022-12-06T02:02:33.441Z,588.45
2022-12-06T02:03:33.418Z,588.59
2022-12-06T02:04:33.413Z,588.98
2022-12-06T02:05:37.604Z,589.32
2022-12-06T02:06:33.435Z,590.06
2022-12-06T02:07:33.434Z,590.47
2022-12-06T02:08:33.416Z,590.62
2022-12-06T02:10:33.417Z,591.33
2022-12-06T02:11:35.311Z,591.14
2022-12-06T02:12:33.432Z,592.28
2022-12-06T02:13:33.430Z,592.44
2022-12-06T02:14:33.430Z,592.38
2022-12-06T02:15:33.441Z,592.77
2022-12-06T02:16:33.492Z,592.94
2022-12-06T02:17:33.437Z,593.28
2022-12-06T02:18:33.442Z,593.5
2022-12-06T02:19:33.431Z,593.99
2022-12-06T02:20:36.498Z,593.95
2022-12-06T02:21:33.435Z,593.73
2022-12-06T02:22:33.440Z,594.06
2022-12-06T02:23:33.443Z,594.08
2022-12-06T02:24:33.443Z,593.74
2022-12-06T02:25:34.283Z,594.16
2022-12-06T02:26:33.451Z,593.36
2022-12-06T02:27:33.454Z,593.25
2022-12-06T02:28:33.447Z,593.45
2022-12-06T02:29:33.449Z,593.22
2022-12-06T02:30:33.486Z,592.36
2022-12-06T02:31:37.190Z,592.12
2022-12-06T02:32:33.458Z,592.17
2022-12-06T02:33:33.460Z,592.3
2022-12-06T02:34:33.456Z,592.06
2022-12-06T02:35:33.466Z,591.05
2022-12-06T02:36:33.490Z,590.84
2022-12-06T02:37:33.469Z,589.85
2022-12-06T02:38:33.465Z,589.68
2022-12-06T02:39:33.472Z,589.46
2022-12-06T02:40:33.470Z,589.54
2022-12-06T02:41:33.473Z,589.16
2022-12-06T02:42:33.467Z,589.73
2022-12-06T02:43:33.471Z,590.18
2022-12-06T02:44:33.469Z,590.66
2022-12-06T02:45:33.477Z,589.52
2022-12-06T02:46:33.521Z,589.31
2022-12-06T02:47:33.477Z,589.7
2022-12-06T02:48:33.485Z,590.21
2022-12-06T02:49:33.483Z,589.63
2022-12-06T02:50:33.481Z,589.8
2022-12-06T02:51:33.492Z,590.01
2022-12-06T02:52:33.512Z,590.39
2022-12-06T02:53:33.493Z,589.77
2022-12-06T02:54:33.492Z,589.82
2022-12-06T02:55:33.498Z,590.98
2022-12-06T02:56:33.501Z,591.15
2022-12-06T02:57:33.490Z,590.58
2022-12-06T02:58:33.496Z,590.72
2022-12-06T02:59:33.499Z,589.96
2022-12-06T03:00:33.496Z,590.16
2022-12-06T03:01:33.532Z,590.01
2022-12-06T03:02:33.521Z,589.8
2022-12-06T03:03:33.513Z,589.43
2022-12-06T03:04:33.546Z,589.06
2022-12-06T03:05:33.511Z,588.5
2022-12-06T03:06:34.520Z,588.18
2022-12-06T03:07:33.602Z,588.37
2022-12-06T03:08:33.535Z,587.84
2022-12-06T03:09:33.520Z,588.03
2022-12-06T03:10:33.511Z,587.66
2022-12-06T03:11:33.520Z,587.47
2022-12-06T03:12:33.522Z,586.9
2022-12-06T03:13:33.528Z,587.68
2022-12-06T03:14:33.516Z,587.37
2022-12-06T03:15:33.549Z,587.42
2022-12-06T03:16:33.530Z,588.21
2022-12-06T03:17:33.529Z,588.63
2022-12-06T03:18:36.505Z,588.15
2022-12-06T03:19:33.537Z,587.6
2022-12-06T03:20:33.543Z,588.5
2022-12-06T03:21:33.536Z,588.76
2022-12-06T03:22:38.350Z,588.68
2022-12-06T03:23:33.548Z,588.64
2022-12-06T03:24:33.562Z,588.84
2022-12-06T03:25:33.541Z,588.7
2022-12-06T03:26:33.545Z,589.61
2022-12-06T03:27:33.545Z,589.29
2022-12-06T03:28:33.546Z,589.96
2022-12-06T03:29:33.548Z,590.34
2022-12-06T03:30:33.558Z,589.92
2022-12-06T03:31:33.612Z,590.15
2022-12-06T03:32:33.582Z,589.72
2022-12-06T03:33:33.548Z,590.24
2022-12-06T03:34:33.570Z,590.61
2022-12-06T03:35:33.555Z,591.35
2022-12-06T03:36:33.562Z,592.22
2022-12-06T03:37:33.580Z,591.64
2022-12-06T03:38:33.564Z,592.93
2022-12-06T03:39:33.566Z,593.92
2022-12-06T03:40:33.590Z,593.69
2022-12-06T03:41:33.569Z,592.86
2022-12-06T03:42:34.237Z,593.49
2022-12-06T03:43:33.575Z,594.31
2022-12-06T03:44:33.567Z,594.26
2022-12-06T03:45:33.629Z,594.88
2022-12-06T03:46:33.599Z,595.17
2022-12-06T03:47:33.577Z,595
2022-12-06T03:48:33.578Z,596.07
2022-12-06T03:49:33.604Z,596.47
2022-12-06T03:50:33.574Z,597.95
2022-12-06T03:51:33.599Z,597.56
2022-12-06T03:52:33.584Z,598.68
2022-12-06T03:53:33.593Z,598.8
2022-12-06T03:54:33.580Z,598.64
2022-12-06T03:55:33.579Z,598.98
2022-12-06T03:56:33.618Z,599.7
2022-12-06T03:57:33.585Z,599.87
2022-12-06T03:58:33.595Z,600.49
2022-12-06T03:59:33.589Z,600.45
2022-12-06T04:00:33.591Z,600.57
2022-12-06T04:01:33.637Z,600.75
2022-12-06T04:02:33.598Z,600.99
2022-12-06T04:03:33.733Z,601.17
2022-12-06T04:04:33.596Z,600.98
2022-12-06T04:05:33.605Z,601.17
2022-12-06T04:06:33.604Z,601.34
2022-12-06T04:07:33.655Z,600.57
2022-12-06T04:08:33.618Z,600.74
2022-12-06T04:09:33.603Z,600.77
2022-12-06T04:10:33.613Z,601.1
2022-12-06T04:11:33.613Z,600.7
2022-12-06T04:12:33.638Z,600.69
2022-12-06T04:13:33.610Z,600.86
2022-12-06T04:14:33.617Z,600.09
2022-12-06T04:15:33.621Z,600.51
2022-12-06T04:16:33.650Z,601.22
2022-12-06T04:17:33.617Z,601.16
2022-12-06T04:18:33.624Z,601.37
2022-12-06T04:19:33.627Z,601.91
2022-12-06T04:20:33.638Z,601.65
2022-12-06T04:21:33.629Z,602.04
2022-12-06T04:22:33.623Z,602.15
2022-12-06T04:23:33.632Z,602.37
2022-12-06T04:24:33.626Z,602.52
2022-12-06T04:25:36.741Z,603.05
2022-12-06T04:26:33.630Z,603.32
2022-12-06T04:27:33.639Z,602.87
2022-12-06T04:28:33.665Z,603.22
2022-12-06T04:29:33.643Z,603.45
2022-12-06T04:30:33.636Z,603.25
2022-12-06T04:31:33.670Z,603.01
2022-12-06T04:32:33.641Z,603.41
2022-12-06T04:33:33.649Z,603.16
2022-12-06T04:34:33.647Z,603.76
2022-12-06T04:35:33.650Z,603.52
2022-12-06T04:36:36.732Z,604.55
2022-12-06T04:37:33.653Z,604.93
2022-12-06T04:38:33.649Z,605.42
2022-12-06T04:39:33.654Z,606.37
2022-12-06T04:40:33.652Z,606.87
2022-12-06T04:41:33.653Z,606.82
2022-12-06T04:42:33.662Z,607.78
2022-12-06T04:43:33.669Z,607.59
2022-12-06T04:44:33.684Z,607.7
2022-12-06T04:45:33.666Z,607.69
2022-12-06T04:46:33.718Z,607.34
2022-12-06T04:47:36.677Z,607.83
2022-12-06T04:48:33.679Z,608.43
2022-12-06T04:49:33.672Z,608.76
2022-12-06T04:50:33.676Z,609.62
2022-12-06T04:51:33.680Z,609.64
2022-12-06T04:52:35.864Z,610.32
2022-12-06T04:53:33.673Z,610.64
2022-12-06T04:54:33.675Z,611.21
2022-12-06T04:55:33.677Z,611.73
2022-12-06T04:56:33.690Z,612.71
2022-12-06T04:57:33.676Z,612.66
2022-12-06T04:58:33.686Z,613.37
2022-12-06T04:59:33.721Z,613.39
2022-12-06T05:00:33.760Z,613.7
2022-12-06T05:01:33.688Z,614.26
2022-12-06T05:02:33.689Z,614.31
2022-12-06T05:03:33.725Z,614.1
2022-12-06T05:04:33.694Z,614.4
2022-12-06T05:05:33.697Z,614.26
2022-12-06T05:06:33.698Z,614.31
2022-12-06T05:07:33.762Z,614.25
2022-12-06T05:08:33.705Z,614.23
2022-12-06T05:09:33.710Z,614.44
2022-12-06T05:10:33.704Z,615.15
2022-12-06T05:11:33.701Z,614.88
2022-12-06T05:12:33.706Z,614.86
2022-12-06T05:13:33.732Z,614.52
2022-12-06T05:14:33.711Z,614.53
2022-12-06T05:15:33.748Z,614.74
2022-12-06T05:16:33.800Z,615.44
2022-12-06T05:17:33.707Z,615.61
2022-12-06T05:18:33.712Z,616.39
2022-12-06T05:19:33.718Z,616.36
2022-12-06T05:20:33.713Z,616.35
2022-12-06T05:21:33.727Z,615.98
2022-12-06T05:22:33.724Z,616.76
2022-12-06T05:23:33.718Z,618
2022-12-06T05:24:33.718Z,617.99
2022-12-06T05:25:33.727Z,617.36
2022-12-06T05:26:33.724Z,617.24
2022-12-06T05:27:36.063Z,616.46
2022-12-06T05:28:33.733Z,616.41
2022-12-06T05:29:33.729Z,616.52
2022-12-06T05:30:33.743Z,617.76
2022-12-06T05:31:33.790Z,616.99
2022-12-06T05:32:33.766Z,616.79
2022-12-06T05:33:33.735Z,616.62
2022-12-06T05:34:33.742Z,618.03
2022-12-06T05:35:33.735Z,617.81
2022-12-06T05:36:33.745Z,618.39
2022-12-06T05:37:33.737Z,619
2022-12-06T05:38:33.745Z,618.38
2022-12-06T05:39:33.749Z,618.59
2022-12-06T05:40:34.355Z,619.02
2022-12-06T05:41:33.754Z,619.09
2022-12-06T05:42:33.752Z,620.73
2022-12-06T05:43:33.756Z,621.66
2022-12-06T05:44:33.750Z,621.19
2022-12-06T05:45:33.786Z,621.18
2022-12-06T05:46:33.753Z,620.52
2022-12-06T05:47:33.754Z,619.56
2022-12-06T05:48:33.782Z,619.39
2022-12-06T05:49:33.764Z,619.76
2022-12-06T05:50:33.801Z,619.95
2022-12-06T05:51:33.762Z,619.73
2022-12-06T05:52:33.768Z,620.69
2022-12-06T05:53:33.784Z,621.71
2022-12-06T05:54:33.776Z,621.17
2022-12-06T05:55:33.773Z,621.18
2022-12-06T05:56:33.775Z,621.4
2022-12-06T05:57:33.770Z,621.97
2022-12-06T05:58:33.777Z,622.12
2022-12-06T05:59:33.776Z,622.9
2022-12-06T06:00:33.789Z,622.75
2022-12-06T06:01:33.785Z,623.13
2022-12-06T06:02:33.890Z,624.16
2022-12-06T06:03:33.894Z,625.11
2022-12-06T06:04:33.820Z,625.29
2022-12-06T06:05:33.803Z,625.82
2022-12-06T06:06:33.793Z,625.6
2022-12-06T06:07:33.863Z,626.33
2022-12-06T06:08:33.823Z,626.46
2022-12-06T06:09:36.581Z,627.18
2022-12-06T06:10:33.794Z,626.45
2022-12-06T06:11:33.797Z,626.31
2022-12-06T06:12:33.801Z,627.04
2022-12-06T06:13:33.816Z,627.57
2022-12-06T06:14:33.803Z,626.51
2022-12-06T06:15:33.806Z,626.72
2022-12-06T06:16:33.854Z,626.88
2022-12-06T06:17:33.808Z,626.93
2022-12-06T06:18:33.825Z,626.86
2022-12-06T06:19:33.808Z,626.15
2022-12-06T06:20:33.844Z,626.69
2022-12-06T06:21:33.814Z,626.7
2022-12-06T06:22:33.809Z,626.36
2022-12-06T06:23:33.843Z,626.67
2022-12-06T06:24:33.819Z,626.38
2022-12-06T06:25:33.818Z,626.75
2022-12-06T06:26:33.828Z,625.99
2022-12-06T06:27:33.830Z,626.66
2022-12-06T06:28:33.845Z,626.52
2022-12-06T06:29:33.830Z,626.85
2022-12-06T06:30:33.820Z,626.76
2022-12-06T06:31:33.864Z,627.48
2022-12-06T06:32:33.833Z,627.1
2022-12-06T06:33:33.861Z,627.68
2022-12-06T06:34:33.865Z,627.82
2022-12-06T06:35:33.836Z,628.32
2022-12-06T06:36:33.860Z,628.77
2022-12-06T06:37:33.833Z,629.5
2022-12-06T06:38:33.869Z,629.26
2022-12-06T06:39:33.834Z,629.96
2022-12-06T06:40:33.925Z,630.52
2022-12-06T06:41:33.841Z,631.4
2022-12-06T06:42:33.840Z,632.72
2022-12-06T06:43:33.885Z,633.34
2022-12-06T06:44:33.846Z,633.36
2022-12-06T06:45:33.947Z,634.07
2022-12-06T06:46:33.929Z,634.45
2022-12-06T06:47:33.853Z,635.53
2022-12-06T06:48:33.870Z,635.39
2022-12-06T06:49:33.853Z,635.89
2022-12-06T06:50:33.858Z,636.68
2022-12-06T06:51:33.864Z,637.38
2022-12-06T06:52:36.885Z,637.19
2022-12-06T06:53:33.890Z,638.15
2022-12-06T06:54:33.861Z,638.16
2022-12-06T06:55:33.857Z,638.82
2022-12-06T06:56:33.864Z,639.03
2022-12-06T06:57:33.863Z,638.84
2022-12-06T06:58:33.925Z,639.04
2022-12-06T06:59:33.864Z,639.88
2022-12-06T07:00:33.866Z,639.87
2022-12-06T07:01:33.956Z,640.37
2022-12-06T07:02:33.936Z,640.71
2022-12-06T07:03:35.342Z,641.21
2022-12-06T07:04:33.872Z,641.97
2022-12-06T07:05:33.874Z,641.59
2022-12-06T07:06:33.878Z,642.3
2022-12-06T07:07:33.937Z,642.46
2022-12-06T07:08:33.910Z,643.17
2022-12-06T07:09:33.887Z,643.88
2022-12-06T07:10:33.891Z,643.89
2022-12-06T07:11:33.884Z,643.59
2022-12-06T07:12:33.887Z,642.67
2022-12-06T07:13:33.888Z,642.65
2022-12-06T07:14:36.998Z,642.28
2022-12-06T07:15:33.902Z,641.94
2022-12-06T07:16:33.988Z,642.49
2022-12-06T07:17:33.894Z,642.65
2022-12-06T07:18:33.905Z,642.13
2022-12-06T07:19:33.895Z,642.59
2022-12-06T07:20:33.909Z,642.92
2022-12-06T07:21:33.902Z,643.44
2022-12-06T07:22:33.899Z,643.08
2022-12-06T07:23:33.914Z,643.61
2022-12-06T07:24:38.417Z,644.13
2022-12-06T07:25:33.906Z,644.64
2022-12-06T07:26:33.916Z,645.11
2022-12-06T07:27:33.916Z,646.07
2022-12-06T07:28:33.932Z,646.59
2022-12-06T07:29:33.923Z,647.01
2022-12-06T07:30:34.005Z,647.28
2022-12-06T07:31:34.062Z,647.6
2022-12-06T07:32:33.916Z,647.68
2022-12-06T07:33:33.921Z,648.79
2022-12-06T07:34:33.921Z,649.05
2022-12-06T07:36:03.352Z,649.5
2022-12-06T07:36:33.928Z,650.17
2022-12-06T07:37:33.932Z,650.39
2022-12-06T07:38:33.927Z,650.77
2022-12-06T07:39:33.935Z,650.75
2022-12-06T07:40:56.555Z,651.1
2022-12-06T07:41:33.937Z,650.89
2022-12-06T07:42:33.938Z,651.64
2022-12-06T07:43:33.932Z,651.97
2022-12-06T07:44:33.941Z,652.44
2022-12-06T07:45:33.943Z,652.5
2022-12-06T07:46:34.001Z,653.78
2022-12-06T07:47:33.938Z,654.14
2022-12-06T07:48:33.948Z,654.43
2022-12-06T07:49:33.956Z,654.74
2022-12-06T07:50:33.956Z,655.96
2022-12-06T07:51:33.944Z,656.46
2022-12-06T07:52:33.953Z,657.72
2022-12-06T07:53:33.959Z,658.44
2022-12-06T07:54:33.953Z,659.12
2022-12-06T07:55:33.955Z,659.83
2022-12-06T07:56:33.976Z,660.16
2022-12-06T07:57:37.321Z,660.39
2022-12-06T07:58:33.964Z,660.15
2022-12-06T07:59:33.961Z,660.41
2022-12-06T08:00:33.968Z,660.67
2022-12-06T08:01:33.986Z,661.34
2022-12-06T08:02:33.966Z,661.24
2022-12-06T08:03:33.970Z,661.15
2022-12-06T08:04:34.038Z,661.41
2022-12-06T08:05:33.965Z,661.92
2022-12-06T08:06:33.969Z,661.69
2022-12-06T08:07:34.033Z,663.08
2022-12-06T08:08:34.017Z,663.35
2022-12-06T08:09:33.980Z,663.61
2022-12-06T08:10:33.974Z,664.15
2022-12-06T08:11:33.983Z,664.84
2022-12-06T08:12:34.003Z,664.7
2022-12-06T08:13:33.986Z,665.03
2022-12-06T08:14:33.987Z,665.2
2022-12-06T08:15:34.054Z,665.71
2022-12-06T08:16:34.009Z,665.48
2022-12-06T08:17:34.000Z,666.07
2022-12-06T08:18:33.992Z,665.7
2022-12-06T08:19:33.995Z,665.96
2022-12-06T08:20:33.994Z,666.36
2022-12-06T08:21:33.994Z,666.88
2022-12-06T08:22:33.991Z,667.21
2022-12-06T08:23:34.678Z,667.36
2022-12-06T08:24:33.994Z,668.17
2022-12-06T08:25:33.998Z,668.29
2022-12-06T08:26:34.005Z,668.46
2022-12-06T08:27:34.001Z,668.99
2022-12-06T08:28:34.025Z,668.82
2022-12-06T08:29:34.008Z,668.31
2022-12-06T08:30:34.062Z,668.14
2022-12-06T08:31:34.052Z,668.15
2022-12-06T08:32:34.050Z,667.64
2022-12-06T08:33:34.008Z,668.01
2022-12-06T08:34:34.011Z,668.56
2022-12-06T08:35:34.019Z,668.93
2022-12-06T08:36:37.109Z,669.05
2022-12-06T08:37:34.021Z,669.8
2022-12-06T08:38:34.024Z,669.28
2022-12-06T08:39:34.026Z,669.79
2022-12-06T08:40:34.017Z,669.81
2022-12-06T08:41:34.034Z,670.17
2022-12-06T08:42:34.044Z,669.92
2022-12-06T08:43:34.043Z,670.15
2022-12-06T08:44:34.048Z,671.02
2022-12-06T08:45:36.997Z,670.61
2022-12-06T08:46:34.061Z,670.78
2022-12-06T08:47:34.031Z,671.67
2022-12-06T08:48:37.267Z,671.88
2022-12-06T08:49:34.037Z,672.3
2022-12-06T08:50:34.031Z,672.28
2022-12-06T08:51:34.039Z,672.49
2022-12-06T08:52:34.047Z,674.04
2022-12-06T08:53:34.045Z,674
2022-12-06T08:54:34.062Z,674.67
2022-12-06T08:55:34.052Z,674.64
2022-12-06T08:56:34.042Z,674.32
2022-12-06T08:57:34.092Z,674.74
2022-12-06T08:58:34.052Z,674.3
2022-12-06T08:59:34.077Z,674.89
2022-12-06T09:00:34.075Z,675.02
2022-12-06T09:01:37.634Z,675.2
2022-12-06T09:02:34.050Z,675.05
2022-12-06T09:03:34.061Z,674.22
2022-12-06T09:04:34.119Z,674.74
2022-12-06T09:05:34.059Z,674.55
2022-12-06T09:06:34.056Z,674.38
2022-12-06T09:07:34.103Z,674.75
2022-12-06T09:08:34.056Z,674.87
2022-12-06T09:09:34.096Z,675.34
2022-12-06T09:10:34.069Z,675.62
2022-12-06T09:11:34.070Z,676.46
2022-12-06T09:12:34.071Z,676.5
2022-12-06T09:13:34.070Z,676.46
2022-12-06T09:14:34.145Z,676.37
2022-12-06T09:15:34.161Z,676.43
2022-12-06T09:16:34.174Z,675.89
2022-12-06T09:17:34.069Z,675.61
2022-12-06T09:18:34.123Z,675.04
2022-12-06T09:19:35.420Z,674.75
2022-12-06T09:20:34.078Z,674.04
2022-12-06T09:21:34.077Z,673.7
2022-12-06T09:22:34.085Z,673.26
2022-12-06T09:23:34.094Z,673.48
2022-12-06T09:24:34.089Z,674.4
2022-12-06T09:25:34.086Z,674.52
2022-12-06T09:26:34.092Z,674.7
2022-12-06T09:27:34.095Z,673.97
2022-12-06T09:28:34.090Z,674.15
2022-12-06T09:29:38.949Z,674.17
2022-12-06T09:30:36.904Z,674.68
2022-12-06T09:31:34.160Z,675.34
2022-12-06T09:32:34.118Z,675.19
2022-12-06T09:33:34.101Z,675.67
2022-12-06T09:34:34.099Z,675.59
2022-12-06T09:35:34.105Z,675.23
2022-12-06T09:36:34.099Z,676.1
2022-12-06T09:37:34.123Z,675.19
2022-12-06T09:38:34.110Z,675.8
2022-12-06T09:39:34.109Z,675.04
2022-12-06T09:40:37.355Z,675.92
2022-12-06T09:41:37.118Z,675.43
2022-12-06T09:42:34.109Z,675.09
2022-12-06T09:43:34.118Z,673.9
2022-12-06T09:44:34.122Z,673.91
2022-12-06T09:45:34.134Z,672.87
2022-12-06T09:46:34.182Z,671.85
2022-12-06T09:47:34.119Z,670.95
2022-12-06T09:48:34.143Z,671.15
2022-12-06T09:49:34.137Z,670.67
2022-12-06T09:50:34.143Z,670.81
2022-12-06T09:51:34.127Z,670.63
2022-12-06T09:52:37.209Z,670.92
2022-12-06T09:53:34.146Z,671.07
2022-12-06T09:54:34.128Z,671.11
2022-12-06T09:55:34.158Z,671.56
2022-12-06T09:56:34.141Z,671.24
2022-12-06T09:57:34.136Z,671.04
2022-12-06T09:58:34.148Z,671.13
2022-12-06T09:59:34.134Z,671.61
2022-12-06T10:00:34.157Z,672.06
2022-12-06T10:01:34.170Z,671.56
2022-12-06T10:02:34.230Z,671.57
2022-12-06T10:03:37.175Z,671.83
2022-12-06T10:04:34.147Z,671.69
2022-12-06T10:05:34.176Z,672.17
2022-12-06T10:06:34.146Z,672.4
2022-12-06T10:07:34.198Z,672.37
2022-12-06T10:08:34.309Z,671.67
2022-12-06T10:09:34.149Z,672.17
2022-12-06T10:10:34.171Z,672.62
2022-12-06T10:11:34.181Z,672.82
2022-12-06T10:12:34.396Z,673.12
2022-12-06T10:13:34.152Z,673.65
2022-12-06T10:14:34.162Z,674.35
2022-12-06T10:15:34.448Z,674.37
2022-12-06T10:16:34.236Z,674.98
2022-12-06T10:17:34.165Z,675.58
2022-12-06T10:18:34.178Z,676.02
2022-12-06T10:19:34.199Z,676.54
2022-12-06T10:20:34.165Z,676.8
2022-12-06T10:21:34.171Z,676.73
2022-12-06T10:22:34.169Z,676.2
2022-12-06T10:23:34.176Z,676.52
2022-12-06T10:24:34.182Z,676.06
2022-12-06T10:25:34.173Z,675.88
2022-12-06T10:26:34.367Z,675.55
2022-12-06T10:27:34.180Z,675
2022-12-06T10:28:34.178Z,674.86
2022-12-06T10:29:34.178Z,675.56
2022-12-06T10:30:34.185Z,675.31
2022-12-06T10:31:34.353Z,674.99
2022-12-06T10:32:34.180Z,675.54
2022-12-06T10:33:34.188Z,674.86
2022-12-06T10:34:34.192Z,674.8
2022-12-06T10:35:34.223Z,674.15
2022-12-06T10:36:34.188Z,674.67
2022-12-06T10:37:34.216Z,674.5
2022-12-06T10:38:34.193Z,673.62
2022-12-06T10:39:34.198Z,673.6
2022-12-06T10:40:34.201Z,673.21
2022-12-06T10:41:34.201Z,673.22
2022-12-06T10:42:34.209Z,673.38
2022-12-06T10:43:34.203Z,674.05
2022-12-06T10:44:34.202Z,674.6
2022-12-06T10:45:34.200Z,674.72
2022-12-06T10:46:34.262Z,675.45
2022-12-06T10:47:34.210Z,675.76
2022-12-06T10:48:34.206Z,676.14
2022-12-06T10:49:34.205Z,675.85
2022-12-06T10:50:34.218Z,674.91
2022-12-06T10:51:34.233Z,675.43
2022-12-06T10:52:34.220Z,675.42
2022-12-06T10:53:34.220Z,676.3
2022-12-06T10:54:34.224Z,676.25
2022-12-06T10:55:34.228Z,676.07
2022-12-06T10:56:34.220Z,675.53
2022-12-06T10:57:34.218Z,675.54
2022-12-06T10:58:34.243Z,675.55
2022-12-06T10:59:34.227Z,675.04
2022-12-06T11:00:34.262Z,674.3
2022-12-06T11:01:34.345Z,674.2
2022-12-06T11:02:34.318Z,673.81
2022-12-06T11:03:34.239Z,673.19
2022-12-06T11:04:34.234Z,672.51
2022-12-06T11:05:34.233Z,672.43
2022-12-06T11:06:34.234Z,671.25
2022-12-06T11:07:34.319Z,671.04
2022-12-06T11:08:34.246Z,670.7
2022-12-06T11:09:34.237Z,670.71
2022-12-06T11:10:34.242Z,670.24
2022-12-06T11:11:34.244Z,669.51
2022-12-06T11:12:34.250Z,668.79
2022-12-06T11:13:34.245Z,667.95
2022-12-06T11:14:34.287Z,667.16
2022-12-06T11:15:34.247Z,666.74
2022-12-06T11:16:34.329Z,666.6
2022-12-06T11:17:34.259Z,666.55
2022-12-06T11:18:34.255Z,666.01
2022-12-06T11:19:34.253Z,666.44
2022-12-06T11:20:34.256Z,666.24
2022-12-06T11:21:34.260Z,666.7
2022-12-06T11:22:34.266Z,666.36
2022-12-06T11:23:34.287Z,665.87
2022-12-06T11:24:34.261Z,665.82
2022-12-06T11:25:34.325Z,665.94
2022-12-06T11:26:34.334Z,665.37
2022-12-06T11:27:34.270Z,665.84
2022-12-06T11:28:34.267Z,664.97
2022-12-06T11:29:34.264Z,665.16
2022-12-06T11:30:34.273Z,664.13
2022-12-06T11:31:34.313Z,664.01
2022-12-06T11:32:34.272Z,663.82
2022-12-06T11:33:34.273Z,664.77
2022-12-06T11:34:34.280Z,664.77
2022-12-06T11:35:34.284Z,664.75
2022-12-06T11:36:34.278Z,665.12
2022-12-06T11:37:34.277Z,665.41
2022-12-06T11:38:34.281Z,665.94
2022-12-06T11:39:34.306Z,666.05
2022-12-06T11:40:34.294Z,666.38
2022-12-06T11:41:34.292Z,667.19
2022-12-06T11:42:34.285Z,667.36
2022-12-06T11:43:34.287Z,668.4
2022-12-06T11:44:34.290Z,669.24
2022-12-06T11:45:34.303Z,670.23
2022-12-06T11:46:37.322Z,670.74
2022-12-06T11:47:34.312Z,671.25
2022-12-06T11:48:34.296Z,671.59
2022-12-06T11:49:34.303Z,672.13
2022-12-06T11:50:34.301Z,672.93
2022-12-06T11:51:34.306Z,674.06
2022-12-06T11:52:34.299Z,674.54
2022-12-06T11:53:34.317Z,674.75
2022-12-06T11:54:34.312Z,674.39
2022-12-06T11:55:34.344Z,674.55
2022-12-06T11:56:34.319Z,674.32
2022-12-06T11:57:37.506Z,672.78
2022-12-06T11:58:34.318Z,672.79
2022-12-06T11:59:34.317Z,673.13
2022-12-06T12:00:34.319Z,673.44
2022-12-06T12:01:34.349Z,673.57
2022-12-06T12:02:34.345Z,673.59
2022-12-06T12:03:34.416Z,672.68
2022-12-06T12:04:34.319Z,672.78
2022-12-06T12:05:34.362Z,672.05
2022-12-06T12:06:34.328Z,672.06
2022-12-06T12:07:34.363Z,671.58
2022-12-06T12:08:37.436Z,671.2
2022-12-06T12:09:34.325Z,671.52
2022-12-06T12:10:34.326Z,671.72
2022-12-06T12:11:34.362Z,671.85
2022-12-06T12:12:34.332Z,671.54
2022-12-06T12:13:34.342Z,671.15
2022-12-06T12:14:34.340Z,671.19
2022-12-06T12:15:34.343Z,671.5
2022-12-06T12:16:34.406Z,670.81
2022-12-06T12:17:34.347Z,670.13
2022-12-06T12:18:34.343Z,670.11
2022-12-06T12:19:37.406Z,670.2
2022-12-06T12:20:34.346Z,669.27
2022-12-06T12:21:34.354Z,669.08
2022-12-06T12:22:34.352Z,669.42
2022-12-06T12:23:34.350Z,669.4
2022-12-06T12:24:38.307Z,669.7
2022-12-06T12:25:34.357Z,670.23
2022-12-06T12:26:34.354Z,670.73
2022-12-06T12:27:34.385Z,670.53
2022-12-06T12:28:34.359Z,669.91
2022-12-06T12:29:34.365Z,670.48
2022-12-06T12:30:37.133Z,670.49
2022-12-06T12:31:34.389Z,669.39
2022-12-06T12:32:34.371Z,669.27